Accueil
METAR-TAF:

METAR-TAF

Aéroports :

Pian Rosa, Italie

latitude: 45-56N, longitude: 007-42E, altitude: 3480 m

Observation

Le bulletin a été fait il y a 37 minutes, à 17:55 UTC
Vent 24 kt de nord/nord-est avec des rafales jusqu'à 36 kt
Température -11°C
Humidité 100%
Pression 1015 hPa
Visibilité 10 km ou plus
Quelques nuages à une hauteur de 1000 ft

METAR: LIMH 071755Z 02024G36KT 9999 FEW010 M11/M11 Q1015 RMK SCT MON CLD SCT VAL NIL VIS MIN 9999

Heure: 20:32 (18:32 UTC)


TAF: absent

Observations et prévisions météorologiques de plus de 4000 aéroports (messages METAR et TAF).

Les stations disponibles sont représentées par des disques jaunes et rouges sur la carte.

Passer la souris dessus pour voir le nom de la station.

Cliquer dessus pour voir les observations et prévisions météorologiques.

Pour changer de carte: cliquez sur les boutons verts avec une croix noire pour zoomer, sur le bouton vert avec un tiret pour effectuer un zoom arrière, ou sur les flèches vertes pour les cartes adjacentes.


METAR-TAF: